createdAt,value
2023-05-16T00:00:35.592Z,87.70
2023-05-16T00:02:37.851Z,87.68
2023-05-16T00:04:39.572Z,88.38
2023-05-16T00:06:41.411Z,88.13
2023-05-16T00:08:42.948Z,88.39
2023-05-16T00:10:44.472Z,88.94
2023-05-16T00:12:48.306Z,88.59
2023-05-16T00:14:51.512Z,89.22
2023-05-16T00:16:59.084Z,89.13
2023-05-16T00:19:01.047Z,89.71
2023-05-16T00:21:03.658Z,89.20
2023-05-16T00:23:05.143Z,89.49
2023-05-16T00:25:08.762Z,89.92
2023-05-16T00:27:10.487Z,90.19
2023-05-16T00:29:11.933Z,90.17
2023-05-16T00:31:13.467Z,90.47
2023-05-16T00:33:15.038Z,90.35
2023-05-16T00:35:16.576Z,90.84
2023-05-16T00:37:18.055Z,91.01
2023-05-16T00:39:19.716Z,90.86
2023-05-16T00:41:21.869Z,90.92
2023-05-16T00:43:23.443Z,90.95
2023-05-16T00:45:25.036Z,91.13
2023-05-16T00:47:26.629Z,90.87
2023-05-16T00:49:29.530Z,90.60
2023-05-16T00:51:31.335Z,91.48
2023-05-16T00:53:32.963Z,91.53
2023-05-16T00:55:34.605Z,91.18
2023-05-16T00:57:37.494Z,91.80
2023-05-16T00:59:40.169Z,90.87
2023-05-16T01:01:41.931Z,90.65
2023-05-16T01:03:47.239Z,90.60
2023-05-16T01:05:49.810Z,89.55
2023-05-16T01:07:51.343Z,89.81
2023-05-16T01:09:53.610Z,89.45
2023-05-16T01:12:21.954Z,89.44
2023-05-16T01:15:05.126Z,88.53
2023-05-16T01:17:31.261Z,88.34
2023-05-16T01:20:02.775Z,87.72
2023-05-16T01:22:29.283Z,87.19
2023-05-16T01:24:40.506Z,87.11
2023-05-16T01:26:42.215Z,86.72
2023-05-16T01:28:46.498Z,86.96
2023-05-16T01:30:48.017Z,86.18
2023-05-16T01:32:49.517Z,86.68
2023-05-16T01:34:52.111Z,86.25
2023-05-16T01:36:56.545Z,86.17
2023-05-16T01:39:19.749Z,85.19
2023-05-16T01:41:25.451Z,84.86
2023-05-16T01:43:43.278Z,84.84
2023-05-16T01:45:53.537Z,85.15
2023-05-16T01:48:07.374Z,84.97
2023-05-16T01:50:20.973Z,84.71
2023-05-16T01:52:37.937Z,84.59
2023-05-16T01:54:45.181Z,84.27
2023-05-16T01:56:55.391Z,84.15
2023-05-16T01:58:59.469Z,84.37
2023-05-16T02:01:05.693Z,83.81
2023-05-16T02:03:08.129Z,84.30
2023-05-16T02:05:09.803Z,84.03
2023-05-16T02:07:12.012Z,84.28
2023-05-16T02:09:13.486Z,83.47
2023-05-16T02:11:14.938Z,83.97
2023-05-16T02:13:16.374Z,83.24
2023-05-16T02:15:17.874Z,83.32
2023-05-16T02:17:19.308Z,83.19
2023-05-16T02:19:21.217Z,83.26
2023-05-16T02:21:22.770Z,83.21
2023-05-16T02:23:24.239Z,82.63
2023-05-16T02:25:26.303Z,83.10
2023-05-16T02:27:27.958Z,82.57
2023-05-16T02:29:29.407Z,82.92
2023-05-16T02:31:32.953Z,82.50
2023-05-16T02:33:34.712Z,82.62
2023-05-16T02:35:36.224Z,82.55
2023-05-16T02:37:38.921Z,82.47
2023-05-16T02:39:40.499Z,82.84
2023-05-16T02:41:41.965Z,82.36
2023-05-16T02:43:46.767Z,81.40
2023-05-16T02:45:48.576Z,81.69
2023-05-16T02:47:50.258Z,81.46
2023-05-16T02:49:54.576Z,82.09
2023-05-16T02:51:56.065Z,81.60
2023-05-16T02:53:59.596Z,81.82
2023-05-16T02:56:01.250Z,82.08
2023-05-16T02:58:02.720Z,81.47
2023-05-16T03:00:06.110Z,81.62
2023-05-16T03:02:08.184Z,82.04
2023-05-16T03:04:10.199Z,81.63
2023-05-16T03:06:11.780Z,81.50
2023-05-16T03:08:13.267Z,81.29
2023-05-16T03:10:14.840Z,81.83
2023-05-16T03:12:16.306Z,81.74
2023-05-16T03:14:17.814Z,81.67
2023-05-16T03:16:19.361Z,81.81
2023-05-16T03:18:21.235Z,81.78
2023-05-16T03:20:22.767Z,82.12
2023-05-16T03:22:24.221Z,82.54
2023-05-16T03:24:26.135Z,81.74
2023-05-16T03:26:27.796Z,82.56
2023-05-16T03:28:29.273Z,82.32
2023-05-16T03:30:30.833Z,82.28
2023-05-16T03:32:33.343Z,82.46
2023-05-16T03:34:34.937Z,82.10
2023-05-16T03:36:38.967Z,83.28
2023-05-16T03:38:40.820Z,82.52
2023-05-16T03:40:42.384Z,82.63
2023-05-16T03:42:43.847Z,82.89
2023-05-16T03:44:45.766Z,82.64
2023-05-16T03:46:47.245Z,82.59
2023-05-16T03:48:48.759Z,81.94
2023-05-16T03:50:51.362Z,82.53
2023-05-16T03:52:53.981Z,82.25
2023-05-16T03:54:55.475Z,82.44
2023-05-16T03:56:56.913Z,81.96
2023-05-16T03:58:58.470Z,82.26
2023-05-16T04:00:59.973Z,82.39
2023-05-16T04:03:01.469Z,81.89
2023-05-16T04:05:03.316Z,82.28
2023-05-16T04:07:04.952Z,81.78
2023-05-16T04:09:07.633Z,81.93
2023-05-16T04:11:09.110Z,82.09
2023-05-16T04:13:10.580Z,82.18
2023-05-16T04:15:12.071Z,82.84
2023-05-16T04:17:13.707Z,82.01
2023-05-16T04:19:15.489Z,82.26
2023-05-16T04:21:16.952Z,81.84
2023-05-16T04:23:18.505Z,82.10
2023-05-16T04:25:20.024Z,81.99
2023-05-16T04:27:21.786Z,82.37
2023-05-16T04:29:23.542Z,81.41
2023-05-16T04:31:28.174Z,81.43
2023-05-16T04:33:29.756Z,81.35
2023-05-16T04:35:31.255Z,81.99
2023-05-16T04:37:32.811Z,81.24
2023-05-16T04:39:35.403Z,81.66
2023-05-16T04:41:36.993Z,81.36
2023-05-16T04:43:38.500Z,81.63
2023-05-16T04:45:40.713Z,81.09
2023-05-16T04:47:42.399Z,81.07
2023-05-16T04:49:43.937Z,81.69
2023-05-16T04:51:45.420Z,81.62
2023-05-16T04:53:47.072Z,80.85
2023-05-16T04:55:48.640Z,81.29
2023-05-16T04:57:50.123Z,81.11
2023-05-16T04:59:51.585Z,81.12
2023-05-16T05:01:53.198Z,81.68
2023-05-16T05:03:54.792Z,81.47
2023-05-16T05:05:56.302Z,81.22
2023-05-16T05:07:58.798Z,80.55
2023-05-16T05:10:00.336Z,80.38
2023-05-16T05:12:01.820Z,79.87
2023-05-16T05:14:03.695Z,79.09
2023-05-16T05:16:06.066Z,79.27
2023-05-16T05:18:07.827Z,78.21
2023-05-16T05:20:10.450Z,77.58
2023-05-16T05:22:12.189Z,77.70
2023-05-16T05:24:13.672Z,76.90
2023-05-16T05:26:15.400Z,77.38
2023-05-16T05:28:16.881Z,77.50
2023-05-16T05:30:18.385Z,77.32
2023-05-16T05:32:19.891Z,77.75
2023-05-16T05:34:21.460Z,77.76
2023-05-16T05:36:22.949Z,77.34
2023-05-16T05:38:24.479Z,77.54
2023-05-16T05:40:26.238Z,77.22
2023-05-16T05:42:27.708Z,77.36
2023-05-16T05:44:29.543Z,77.00
2023-05-16T05:46:31.421Z,76.93
2023-05-16T05:48:33.075Z,75.74
2023-05-16T05:50:34.666Z,75.74
2023-05-16T05:52:36.177Z,75.97
2023-05-16T05:54:37.691Z,74.95
2023-05-16T05:56:39.150Z,74.69
2023-05-16T05:58:42.009Z,75.77
2023-05-16T06:00:43.521Z,75.43
2023-05-16T06:02:45.213Z,76.82
2023-05-16T06:04:46.837Z,76.97
2023-05-16T06:06:48.497Z,76.91
2023-05-16T06:08:49.970Z,76.27
2023-05-16T06:10:51.511Z,75.58
2023-05-16T06:12:52.960Z,74.67
2023-05-16T06:14:54.401Z,74.48
2023-05-16T06:16:56.189Z,74.62
2023-05-16T06:18:57.754Z,74.01
2023-05-16T06:20:59.291Z,74.10
2023-05-16T06:23:01.545Z,74.03
2023-05-16T06:25:03.506Z,74.49
2023-05-16T06:27:05.118Z,73.59
2023-05-16T06:29:06.660Z,73.31
2023-05-16T06:31:08.190Z,72.21
2023-05-16T06:33:09.687Z,72.41
2023-05-16T06:35:11.261Z,71.61
2023-05-16T06:37:12.732Z,71.06
2023-05-16T06:39:14.265Z,70.70
2023-05-16T06:41:15.754Z,71.14
2023-05-16T06:43:17.943Z,70.75
2023-05-16T06:45:19.427Z,70.65
2023-05-16T06:47:21.594Z,70.54
2023-05-16T06:49:23.884Z,70.97
2023-05-16T06:51:25.730Z,71.03
2023-05-16T06:53:28.734Z,70.33
2023-05-16T06:55:30.550Z,69.96
2023-05-16T06:57:32.163Z,69.59
2023-05-16T06:59:34.320Z,69.30
2023-05-16T07:01:35.865Z,68.94
2023-05-16T07:03:37.469Z,69.48
2023-05-16T07:05:39.168Z,68.79
2023-05-16T07:07:40.724Z,68.47
2023-05-16T07:09:42.204Z,66.64
2023-05-16T07:11:43.747Z,66.30
2023-05-16T07:13:45.418Z,66.28
2023-05-16T07:15:46.953Z,66.06
2023-05-16T07:17:48.613Z,66.00
2023-05-16T07:19:50.583Z,66.96
2023-05-16T07:21:52.117Z,67.21
2023-05-16T07:23:53.680Z,65.24
2023-05-16T07:25:55.245Z,66.25
2023-05-16T07:27:56.780Z,66.36
2023-05-16T07:29:58.393Z,62.75
2023-05-16T07:31:59.917Z,62.86
2023-05-16T07:34:01.434Z,63.40
2023-05-16T07:36:15.346Z,63.58
2023-05-16T07:38:18.158Z,62.84
2023-05-16T07:40:21.261Z,63.87
2023-05-16T07:42:22.817Z,62.85
2023-05-16T07:44:24.401Z,63.02
2023-05-16T07:46:26.075Z,62.85
2023-05-16T07:48:27.950Z,63.79
2023-05-16T07:50:29.548Z,63.54
2023-05-16T07:52:31.061Z,64.12
2023-05-16T07:54:33.372Z,63.79
2023-05-16T07:56:35.027Z,64.38
2023-05-16T07:58:36.714Z,65.59
2023-05-16T08:00:38.208Z,65.16
2023-05-16T08:02:39.973Z,64.32
2023-05-16T08:04:41.588Z,65.81
2023-05-16T08:06:43.153Z,63.74
2023-05-16T08:08:44.665Z,63.03
2023-05-16T08:10:46.407Z,62.03
2023-05-16T08:12:48.380Z,62.88
2023-05-16T08:14:50.055Z,61.76
2023-05-16T08:16:51.568Z,62.94
2023-05-16T08:18:53.395Z,61.71
2023-05-16T08:20:54.913Z,61.43
2023-05-16T08:22:56.484Z,62.89
2023-05-16T08:24:57.995Z,62.70
2023-05-16T08:26:59.499Z,63.45
2023-05-16T08:29:01.033Z,62.88
2023-05-16T08:31:02.562Z,63.63
2023-05-16T08:33:05.369Z,65.15
2023-05-16T08:35:07.673Z,65.43
2023-05-16T08:37:10.303Z,67.63
2023-05-16T08:39:12.413Z,63.51
2023-05-16T08:41:13.951Z,63.89
2023-05-16T08:43:15.506Z,65.16
2023-05-16T08:45:17.238Z,63.25
2023-05-16T08:47:21.690Z,63.36
2023-05-16T08:49:26.920Z,65.31
2023-05-16T08:51:32.493Z,65.37
2023-05-16T08:53:45.023Z,63.35
2023-05-16T08:55:48.584Z,65.16
2023-05-16T08:57:51.946Z,65.89
2023-05-16T08:59:55.608Z,65.93
2023-05-16T09:01:58.387Z,65.58
2023-05-16T09:04:01.253Z,65.50
2023-05-16T09:06:06.114Z,66.02
2023-05-16T09:08:09.659Z,64.66
2023-05-16T09:10:12.195Z,61.30
2023-05-16T09:12:13.719Z,61.73
2023-05-16T09:14:15.365Z,60.29
2023-05-16T09:16:21.165Z,57.87
2023-05-16T09:18:22.727Z,59.84
2023-05-16T09:20:24.259Z,57.46
2023-05-16T09:22:25.881Z,56.34
2023-05-16T09:24:27.404Z,55.65
2023-05-16T09:26:29.028Z,55.60
2023-05-16T09:28:31.803Z,53.51
2023-05-16T09:30:34.992Z,52.74
2023-05-16T09:32:36.823Z,53.01
2023-05-16T09:34:46.101Z,52.79
2023-05-16T09:36:54.815Z,52.60
2023-05-16T09:38:56.253Z,52.38
2023-05-16T09:40:57.805Z,52.68
2023-05-16T09:43:07.767Z,53.59
2023-05-16T09:45:13.309Z,54.03
2023-05-16T09:47:17.203Z,52.79
2023-05-16T09:49:19.244Z,51.80
2023-05-16T09:51:23.367Z,52.21
2023-05-16T09:53:29.144Z,52.83
2023-05-16T09:55:31.884Z,49.57
2023-05-16T09:57:33.377Z,49.26
2023-05-16T09:59:41.047Z,46.83
2023-05-16T10:01:42.845Z,47.98
2023-05-16T10:03:44.555Z,48.39
2023-05-16T10:05:46.735Z,50.54
2023-05-16T10:07:49.527Z,51.86
2023-05-16T10:09:59.007Z,53.78
2023-05-16T10:12:08.434Z,56.94
2023-05-16T10:14:11.744Z,58.13
2023-05-16T10:16:14.408Z,53.84
2023-05-16T10:18:18.429Z,57.43
2023-05-16T10:20:21.325Z,58.68
2023-05-16T10:22:24.608Z,63.83
2023-05-16T10:24:43.833Z,67.83
2023-05-16T10:26:45.378Z,70.38
2023-05-16T10:28:47.665Z,72.75
2023-05-16T10:30:50.601Z,75.11
2023-05-16T10:32:53.117Z,76.10
2023-05-16T10:34:56.231Z,76.99
2023-05-16T10:36:59.207Z,76.58
2023-05-16T10:39:01.454Z,77.65
2023-05-16T10:41:03.541Z,77.00
2023-05-16T10:43:07.361Z,74.67
2023-05-16T10:45:19.978Z,72.32
2023-05-16T10:47:21.650Z,71.19
2023-05-16T10:49:24.841Z,69.93
2023-05-16T10:51:37.284Z,66.93
2023-05-16T10:53:38.813Z,62.50
2023-05-16T10:55:44.490Z,64.14
2023-05-16T10:57:46.129Z,62.10
2023-05-16T10:59:50.014Z,62.44
2023-05-16T11:01:56.652Z,64.85
2023-05-16T11:04:04.453Z,66.38
2023-05-16T11:06:06.450Z,68.66
2023-05-16T11:08:09.075Z,68.93
2023-05-16T11:10:15.561Z,69.52
2023-05-16T11:12:20.782Z,70.35
2023-05-16T11:14:23.328Z,69.96
2023-05-16T11:16:28.609Z,70.67
2023-05-16T11:18:33.112Z,70.36
2023-05-16T11:20:37.961Z,70.41
2023-05-16T11:22:41.340Z,71.07
2023-05-16T11:25:03.310Z,69.16
2023-05-16T11:27:06.444Z,66.66
2023-05-16T11:29:08.524Z,64.20
2023-05-16T11:31:10.192Z,61.94
2023-05-16T11:33:13.406Z,61.12
2023-05-16T11:35:17.517Z,59.67
2023-05-16T11:37:20.200Z,60.24
2023-05-16T11:39:24.993Z,60.46
2023-05-16T11:41:26.833Z,56.29
2023-05-16T11:43:28.319Z,58.33
2023-05-16T11:45:30.117Z,59.04
2023-05-16T11:47:32.127Z,59.44
2023-05-16T11:49:35.571Z,62.97
2023-05-16T11:51:43.579Z,63.99
2023-05-16T11:53:45.111Z,64.76
2023-05-16T11:55:54.789Z,64.60
2023-05-16T11:57:58.698Z,65.80
2023-05-16T12:00:15.014Z,63.63
2023-05-16T12:02:16.755Z,65.31
2023-05-16T12:04:20.255Z,67.29
2023-05-16T12:06:21.927Z,68.60
2023-05-16T12:08:24.676Z,71.01
2023-05-16T12:10:26.896Z,71.54
2023-05-16T12:12:28.968Z,72.08
2023-05-16T12:14:30.647Z,73.51
2023-05-16T12:16:33.044Z,73.71
2023-05-16T12:18:34.835Z,73.77
2023-05-16T12:20:36.485Z,73.21
2023-05-16T12:22:41.648Z,71.21
2023-05-16T12:24:43.161Z,71.04
2023-05-16T12:26:44.776Z,70.30
2023-05-16T12:28:46.561Z,71.00
2023-05-16T12:30:48.273Z,71.52
2023-05-16T12:32:55.687Z,72.27
2023-05-16T12:34:57.301Z,70.36
2023-05-16T12:36:59.684Z,68.56
2023-05-16T12:39:03.837Z,67.52
2023-05-16T12:41:05.332Z,68.59
2023-05-16T12:43:17.640Z,68.90
2023-05-16T12:45:19.390Z,68.40
2023-05-16T12:47:21.506Z,68.62
2023-05-16T12:49:23.290Z,65.76
2023-05-16T12:51:24.814Z,65.85
2023-05-16T12:53:26.758Z,65.61
2023-05-16T12:55:28.240Z,66.34
2023-05-16T12:57:29.737Z,68.09
2023-05-16T12:59:31.450Z,67.86
2023-05-16T13:01:34.842Z,66.95
2023-05-16T13:03:36.689Z,67.15
2023-05-16T13:05:38.538Z,66.53
2023-05-16T13:07:40.880Z,65.19
2023-05-16T13:09:42.419Z,63.45
2023-05-16T13:11:43.892Z,62.58
2023-05-16T13:13:45.554Z,63.66
2023-05-16T13:15:47.900Z,64.39
2023-05-16T13:17:49.510Z,62.96
2023-05-16T13:19:51.983Z,64.10
2023-05-16T13:21:53.463Z,62.43
2023-05-16T13:23:54.982Z,62.07
2023-05-16T13:25:56.967Z,62.59
2023-05-16T13:27:58.495Z,66.49
2023-05-16T13:30:00.394Z,68.85
2023-05-16T13:32:02.018Z,70.14
2023-05-16T13:34:04.228Z,70.88
2023-05-16T13:36:07.246Z,72.25
2023-05-16T13:38:10.791Z,72.95
2023-05-16T13:40:12.404Z,72.83
2023-05-16T13:42:13.927Z,72.18
2023-05-16T13:44:16.172Z,73.66
2023-05-16T13:46:17.945Z,73.81
2023-05-16T13:48:19.642Z,73.66
2023-05-16T13:50:21.541Z,74.07
2023-05-16T13:52:23.019Z,73.56
2023-05-16T13:54:24.558Z,73.00
2023-05-16T13:56:26.072Z,72.11
2023-05-16T13:58:27.629Z,66.75
2023-05-16T14:00:44.446Z,64.02
2023-05-16T14:02:47.670Z,63.44
2023-05-16T14:04:50.078Z,63.88
2023-05-16T14:06:51.940Z,61.16
2023-05-16T14:08:53.428Z,60.60
2023-05-16T14:10:55.098Z,60.64
2023-05-16T14:12:56.584Z,62.50
2023-05-16T14:14:59.382Z,62.52
2023-05-16T14:17:01.329Z,61.04
2023-05-16T14:19:03.094Z,61.75
2023-05-16T14:21:05.010Z,60.26
2023-05-16T14:23:06.598Z,61.81
2023-05-16T14:25:08.554Z,61.99
2023-05-16T14:27:10.167Z,62.24
2023-05-16T14:29:12.304Z,62.19
2023-05-16T14:31:13.874Z,62.22
2023-05-16T14:33:15.508Z,61.38
2023-05-16T14:35:17.227Z,60.47
2023-05-16T14:37:18.826Z,62.20
2023-05-16T14:39:20.391Z,61.36
2023-05-16T14:41:22.666Z,62.86
2023-05-16T14:43:24.169Z,61.74
2023-05-16T14:45:25.964Z,60.57
2023-05-16T14:47:28.974Z,59.85
2023-05-16T14:49:30.647Z,59.73
2023-05-16T14:51:32.353Z,60.09
2023-05-16T14:53:34.008Z,61.03
2023-05-16T14:55:35.894Z,61.34
2023-05-16T14:57:37.443Z,62.71
2023-05-16T14:59:38.973Z,61.49
2023-05-16T15:01:41.296Z,61.47
2023-05-16T15:03:54.528Z,59.59
2023-05-16T15:05:57.885Z,58.83
2023-05-16T15:08:00.265Z,56.59
2023-05-16T15:10:02.016Z,56.94
2023-05-16T15:12:03.804Z,57.69
2023-05-16T15:14:06.596Z,55.78
2023-05-16T15:16:08.253Z,53.96
2023-05-16T15:18:11.238Z,53.88
2023-05-16T15:20:13.198Z,55.29
2023-05-16T15:22:15.288Z,54.42
2023-05-16T15:24:17.971Z,54.55
2023-05-16T15:26:19.694Z,54.79
2023-05-16T15:28:22.715Z,55.81
2023-05-16T15:30:24.501Z,56.20
2023-05-16T15:32:26.293Z,56.20
2023-05-16T15:34:28.614Z,56.29
2023-05-16T15:36:30.187Z,57.66
2023-05-16T15:38:31.970Z,57.66
2023-05-16T15:40:33.476Z,57.87
2023-05-16T15:42:35.673Z,58.60
2023-05-16T15:44:37.378Z,59.04
2023-05-16T15:46:39.034Z,59.17
2023-05-16T15:48:42.858Z,58.75
2023-05-16T15:50:44.367Z,58.54
2023-05-16T15:52:45.867Z,58.66
2023-05-16T15:54:47.339Z,59.88
2023-05-16T15:56:48.966Z,60.69
2023-05-16T15:58:50.771Z,60.61
2023-05-16T16:00:53.778Z,61.78
2023-05-16T16:02:55.547Z,62.32
2023-05-16T16:04:57.119Z,63.54
2023-05-16T16:06:59.032Z,63.42
2023-05-16T16:09:00.938Z,63.61
2023-05-16T16:11:02.799Z,64.24
2023-05-16T16:13:04.707Z,64.28
2023-05-16T16:15:06.909Z,63.58
2023-05-16T16:17:08.737Z,63.74
2023-05-16T16:19:10.353Z,64.20
2023-05-16T16:21:12.540Z,64.12
2023-05-16T16:23:14.164Z,64.38
2023-05-16T16:25:16.171Z,64.61
2023-05-16T16:27:17.697Z,64.67
2023-05-16T16:29:19.192Z,64.61
2023-05-16T16:31:20.799Z,64.44
2023-05-16T16:33:22.359Z,65.30
2023-05-16T16:35:26.071Z,65.77
2023-05-16T16:37:27.848Z,66.63
2023-05-16T16:39:32.179Z,66.46
2023-05-16T16:41:34.598Z,66.98
2023-05-16T16:43:40.055Z,68.29
2023-05-16T16:45:41.587Z,67.27
2023-05-16T16:47:43.261Z,67.58
2023-05-16T16:49:45.526Z,67.61
2023-05-16T16:51:47.671Z,68.28
2023-05-16T16:53:49.195Z,67.45
2023-05-16T16:55:50.803Z,67.24
2023-05-16T16:57:52.314Z,65.96
2023-05-16T16:59:53.925Z,66.46
2023-05-16T17:01:55.520Z,67.61
2023-05-16T17:03:57.433Z,68.29
2023-05-16T17:05:58.915Z,68.41
2023-05-16T17:08:00.577Z,67.78
2023-05-16T17:10:04.701Z,68.38
2023-05-16T17:12:08.605Z,68.81
2023-05-16T17:14:14.440Z,68.75
2023-05-16T17:16:16.401Z,68.70
2023-05-16T17:18:18.050Z,69.68
2023-05-16T17:20:19.745Z,69.73
2023-05-16T17:22:22.185Z,69.98
2023-05-16T17:24:23.723Z,69.82
2023-05-16T17:26:25.304Z,69.27
2023-05-16T17:28:26.888Z,69.97
2023-05-16T17:30:28.377Z,69.21
2023-05-16T17:32:29.910Z,68.69
2023-05-16T17:34:31.810Z,68.41
2023-05-16T17:36:33.367Z,68.61
2023-05-16T17:38:34.860Z,68.77
2023-05-16T17:40:36.417Z,69.15
2023-05-16T17:42:38.437Z,69.28
2023-05-16T17:44:41.105Z,69.70
2023-05-16T17:46:43.137Z,69.52
2023-05-16T17:48:44.621Z,69.97
2023-05-16T17:50:46.199Z,70.41
2023-05-16T17:52:47.744Z,70.81
2023-05-16T17:54:49.246Z,71.16
2023-05-16T17:56:51.189Z,71.35
2023-05-16T17:58:53.432Z,71.05
2023-05-16T18:00:55.224Z,70.80
2023-05-16T18:02:56.787Z,71.04
2023-05-16T18:04:59.497Z,71.47
2023-05-16T18:07:01.350Z,71.32
2023-05-16T18:09:06.470Z,71.05
2023-05-16T18:11:08.019Z,70.59
2023-05-16T18:13:09.617Z,69.87
2023-05-16T18:15:11.989Z,69.49
2023-05-16T18:17:13.551Z,69.11
2023-05-16T18:19:15.149Z,69.25
2023-05-16T18:21:16.899Z,69.13
2023-05-16T18:23:18.396Z,68.94
2023-05-16T18:25:20.024Z,68.62
2023-05-16T18:27:21.558Z,68.69
2023-05-16T18:29:23.513Z,68.93
2023-05-16T18:31:25.117Z,68.78
2023-05-16T18:33:26.690Z,69.02
2023-05-16T18:35:28.692Z,68.86
2023-05-16T18:37:31.053Z,68.28
2023-05-16T18:39:33.059Z,68.03
2023-05-16T18:41:34.654Z,68.16
2023-05-16T18:43:36.752Z,67.53
2023-05-16T18:45:38.261Z,67.32
2023-05-16T18:47:39.878Z,67.80
2023-05-16T18:49:41.665Z,67.89
2023-05-16T18:51:44.169Z,68.29
2023-05-16T18:53:45.713Z,68.37
2023-05-16T18:55:48.595Z,68.55
2023-05-16T18:57:50.120Z,69.06
2023-05-16T18:59:53.645Z,69.26
2023-05-16T19:01:55.649Z,69.36
2023-05-16T19:03:57.605Z,69.05
2023-05-16T19:05:59.342Z,68.46
2023-05-16T19:08:00.938Z,68.77
2023-05-16T19:10:03.783Z,68.74
2023-05-16T19:12:05.996Z,68.79
2023-05-16T19:14:08.282Z,69.03
2023-05-16T19:16:10.207Z,68.72
2023-05-16T19:18:11.958Z,68.86
2023-05-16T19:20:13.580Z,68.94
2023-05-16T19:22:15.149Z,69.12
2023-05-16T19:24:16.989Z,69.70
2023-05-16T19:26:18.790Z,69.41
2023-05-16T19:28:20.528Z,69.79
2023-05-16T19:30:23.309Z,70.23
2023-05-16T19:32:24.944Z,70.17
2023-05-16T19:34:26.732Z,70.37
2023-05-16T19:36:28.433Z,70.40
2023-05-16T19:38:29.929Z,70.83
2023-05-16T19:40:33.900Z,70.90
2023-05-16T19:42:35.611Z,71.32
2023-05-16T19:44:37.112Z,71.17
2023-05-16T19:46:39.318Z,70.94
2023-05-16T19:48:41.044Z,71.49
2023-05-16T19:50:42.651Z,71.77
2023-05-16T19:52:44.225Z,71.73
2023-05-16T19:54:45.771Z,72.17
2023-05-16T19:56:47.261Z,72.16
2023-05-16T19:58:48.896Z,72.50
2023-05-16T20:00:50.875Z,72.59
2023-05-16T20:02:52.660Z,72.86
2023-05-16T20:04:54.398Z,72.88
2023-05-16T20:06:55.921Z,73.21
2023-05-16T20:08:57.442Z,73.32
2023-05-16T20:10:59.039Z,73.14
2023-05-16T20:13:00.702Z,73.56
2023-05-16T20:15:02.567Z,73.69
2023-05-16T20:17:04.227Z,74.36
2023-05-16T20:19:06.990Z,74.92
2023-05-16T20:21:08.564Z,75.12
2023-05-16T20:23:10.116Z,75.60
2023-05-16T20:25:12.036Z,74.96
2023-05-16T20:27:13.606Z,75.31
2023-05-16T20:29:15.114Z,75.93
2023-05-16T20:31:16.600Z,76.01
2023-05-16T20:33:18.196Z,76.34
2023-05-16T20:35:19.860Z,76.44
2023-05-16T20:37:26.371Z,76.02
2023-05-16T20:39:28.893Z,76.41
2023-05-16T20:41:30.444Z,76.85
2023-05-16T20:43:31.934Z,76.85
2023-05-16T20:45:33.440Z,76.92
2023-05-16T20:47:34.970Z,77.06
2023-05-16T20:49:37.788Z,77.06
2023-05-16T20:51:39.355Z,76.95
2023-05-16T20:53:40.833Z,77.10
2023-05-16T20:55:42.349Z,77.38
2023-05-16T20:57:44.006Z,77.48
2023-05-16T20:59:45.631Z,78.50
2023-05-16T21:01:47.301Z,78.92
2023-05-16T21:03:48.928Z,79.48
2023-05-16T21:05:50.500Z,79.74
2023-05-16T21:07:52.024Z,80.02
2023-05-16T21:09:53.536Z,80.23
2023-05-16T21:11:55.137Z,79.72
2023-05-16T21:13:56.625Z,80.16
2023-05-16T21:15:58.151Z,80.21
2023-05-16T21:17:59.737Z,80.29
2023-05-16T21:20:01.284Z,80.18
2023-05-16T21:22:03.995Z,80.52
2023-05-16T21:24:05.845Z,80.42
2023-05-16T21:26:07.461Z,80.22
2023-05-16T21:28:09.117Z,80.67
2023-05-16T21:30:11.297Z,80.65
2023-05-16T21:32:16.225Z,80.71
2023-05-16T21:34:17.915Z,80.68
2023-05-16T21:36:22.335Z,80.98
2023-05-16T21:38:23.890Z,80.26
2023-05-16T21:40:25.704Z,80.24
2023-05-16T21:42:27.490Z,80.87
2023-05-16T21:44:29.418Z,80.56
2023-05-16T21:46:30.914Z,80.78
2023-05-16T21:48:32.555Z,80.84
2023-05-16T21:50:34.196Z,80.96
2023-05-16T21:52:36.104Z,80.51
2023-05-16T21:54:37.613Z,81.01
2023-05-16T21:56:39.145Z,80.77
2023-05-16T21:58:42.363Z,80.89
2023-05-16T22:00:43.846Z,81.14
2023-05-16T22:02:45.574Z,80.56
2023-05-16T22:04:47.166Z,81.20
2023-05-16T22:06:48.676Z,81.01
2023-05-16T22:08:50.969Z,81.65
2023-05-16T22:10:52.838Z,81.27
2023-05-16T22:12:54.335Z,81.40
2023-05-16T22:14:55.999Z,82.14
2023-05-16T22:16:57.494Z,81.29
2023-05-16T22:18:59.066Z,82.00
2023-05-16T22:21:01.170Z,82.26
2023-05-16T22:23:02.961Z,82.51
2023-05-16T22:25:05.152Z,82.84
2023-05-16T22:27:06.851Z,82.30
2023-05-16T22:29:08.353Z,83.07
2023-05-16T22:31:09.877Z,83.58
2023-05-16T22:33:11.451Z,83.50
2023-05-16T22:35:13.730Z,83.59
2023-05-16T22:37:15.383Z,83.79
2023-05-16T22:39:16.910Z,83.67
2023-05-16T22:41:18.493Z,83.97
2023-05-16T22:43:20.206Z,84.55
2023-05-16T22:45:21.846Z,84.77
2023-05-16T22:47:23.377Z,84.06
2023-05-16T22:49:24.956Z,84.66
2023-05-16T22:51:26.547Z,84.15
2023-05-16T22:53:28.507Z,84.36
2023-05-16T22:55:30.301Z,84.25
2023-05-16T22:57:32.060Z,83.96
2023-05-16T22:59:34.171Z,84.51
2023-05-16T23:01:35.827Z,83.77
2023-05-16T23:03:37.472Z,83.96
2023-05-16T23:05:39.006Z,83.89
2023-05-16T23:07:41.340Z,83.36
2023-05-16T23:09:43.221Z,83.88
2023-05-16T23:11:44.717Z,83.79
2023-05-16T23:13:46.476Z,83.64
2023-05-16T23:15:48.015Z,83.88
2023-05-16T23:17:49.603Z,83.21
2023-05-16T23:19:51.560Z,83.23
2023-05-16T23:21:53.115Z,83.89
2023-05-16T23:23:54.584Z,84.47
2023-05-16T23:25:56.098Z,84.60
2023-05-16T23:27:57.919Z,84.49
2023-05-16T23:29:59.555Z,85.06
2023-05-16T23:32:01.132Z,85.31
2023-05-16T23:34:02.740Z,85.02
2023-05-16T23:36:04.711Z,84.74
2023-05-16T23:38:06.185Z,85.68
2023-05-16T23:40:08.506Z,85.40
2023-05-16T23:42:10.068Z,85.57
2023-05-16T23:44:11.575Z,85.79
2023-05-16T23:46:13.068Z,85.97
2023-05-16T23:48:14.795Z,86.25
2023-05-16T23:50:17.415Z,86.62
2023-05-16T23:52:19.136Z,86.81
2023-05-16T23:54:20.793Z,86.41
2023-05-16T23:56:22.489Z,87.26
2023-05-16T23:58:24.018Z,86.85
